createdAt,value
2023-05-10T00:01:00.907Z,950.8912
2023-05-10T00:02:04.160Z,950.8694
2023-05-10T00:03:07.643Z,950.9688
2023-05-10T00:04:10.870Z,951.0118
2023-05-10T00:05:14.129Z,951.0612
2023-05-10T00:06:15.490Z,951.0488
2023-05-10T00:07:18.723Z,951.0659
2023-05-10T00:08:22.157Z,951.0100
2023-05-10T00:09:25.376Z,951.0524
2023-05-10T00:10:28.616Z,951.0612
2023-05-10T00:11:32.021Z,951.0459
2023-05-10T00:12:35.228Z,951.0094
2023-05-10T00:13:38.892Z,951.0270
2023-05-10T00:14:42.086Z,951.0141
2023-05-10T00:15:45.311Z,951.0812
2023-05-10T00:16:48.690Z,951.0600
2023-05-10T00:17:51.938Z,951.1047
2023-05-10T00:18:55.383Z,951.1241
2023-05-10T00:19:58.609Z,951.1000
2023-05-10T00:21:02.058Z,951.1282
2023-05-10T00:22:05.292Z,951.1418
2023-05-10T00:23:08.538Z,951.1324
2023-05-10T00:24:11.972Z,951.1423
2023-05-10T00:25:15.203Z,951.1747
2023-05-10T00:26:18.622Z,951.1488
2023-05-10T00:27:21.851Z,951.1441
2023-05-10T00:28:25.078Z,951.1559
2023-05-10T00:29:28.316Z,951.1706
2023-05-10T00:30:31.543Z,951.1641
2023-05-10T00:31:35.117Z,951.1423
2023-05-10T00:32:38.354Z,951.1306
2023-05-10T00:33:41.593Z,951.1265
2023-05-10T00:34:44.829Z,951.1677
2023-05-10T00:35:48.035Z,951.1759
2023-05-10T00:36:51.309Z,951.1965
2023-05-10T00:37:54.494Z,951.2170
2023-05-10T00:38:55.774Z,951.2406
2023-05-10T00:39:59.052Z,951.2441
2023-05-10T00:41:02.646Z,951.2535
2023-05-10T00:42:05.901Z,951.2629
2023-05-10T00:43:09.117Z,951.2783
2023-05-10T00:44:09.630Z,951.3025
2023-05-10T00:45:12.956Z,951.3289
2023-05-10T00:46:16.604Z,951.3112
2023-05-10T00:47:19.897Z,951.3282
2023-05-10T00:48:23.141Z,951.3218
2023-05-10T00:49:26.397Z,951.3406
2023-05-10T00:50:29.617Z,951.3359
2023-05-10T00:51:32.882Z,951.3535
2023-05-10T00:52:36.124Z,951.3611
2023-05-10T00:53:39.378Z,951.3512
2023-05-10T00:54:42.611Z,951.3559
2023-05-10T00:55:45.835Z,951.3724
2023-05-10T00:56:49.071Z,951.3435
2023-05-10T00:57:52.294Z,951.3359
2023-05-10T00:58:55.743Z,951.3470
2023-05-10T00:59:58.947Z,951.3112
2023-05-10T01:01:02.207Z,951.3336
2023-05-10T01:02:05.791Z,951.3435
2023-05-10T01:03:09.151Z,951.3389
2023-05-10T01:04:12.480Z,951.3459
2023-05-10T01:05:15.749Z,951.3383
2023-05-10T01:06:19.236Z,951.3412
2023-05-10T01:07:22.488Z,951.3371
2023-05-10T01:08:25.709Z,951.3441
2023-05-10T01:09:28.949Z,951.3606
2023-05-10T01:10:32.168Z,951.3535
2023-05-10T01:11:35.687Z,951.3706
2023-05-10T01:12:39.115Z,951.3741
2023-05-10T01:13:42.338Z,951.3700
2023-05-10T01:14:45.562Z,951.3812
2023-05-10T01:15:48.791Z,951.3759
2023-05-10T01:16:51.984Z,951.3606
2023-05-10T01:17:55.220Z,951.3842
2023-05-10T01:18:58.687Z,951.3842
2023-05-10T01:20:01.923Z,951.3741
2023-05-10T01:21:05.110Z,951.4023
2023-05-10T01:22:08.610Z,951.4106
2023-05-10T01:23:11.844Z,951.4153
2023-05-10T01:24:15.034Z,951.4147
2023-05-10T01:25:18.262Z,951.4106
2023-05-10T01:26:21.462Z,951.4476
2023-05-10T01:27:24.688Z,951.4547
2023-05-10T01:28:27.926Z,951.4447
2023-05-10T01:29:31.408Z,951.4583
2023-05-10T01:30:34.616Z,951.4347
2023-05-10T01:31:37.874Z,951.4523
2023-05-10T01:32:41.069Z,951.4847
2023-05-10T01:33:44.320Z,951.4847
2023-05-10T01:34:47.768Z,951.4735
2023-05-10T01:35:51.336Z,951.4682
2023-05-10T01:36:54.549Z,951.4700
2023-05-10T01:37:57.811Z,951.4741
2023-05-10T01:39:01.301Z,951.4453
2023-05-10T01:40:04.566Z,951.4482
2023-05-10T01:41:07.770Z,951.4518
2023-05-10T01:42:10.980Z,951.4524
2023-05-10T01:43:14.226Z,951.4636
2023-05-10T01:44:17.674Z,951.4706
2023-05-10T01:45:20.876Z,951.4571
2023-05-10T01:46:24.139Z,951.4694
2023-05-10T01:47:27.367Z,951.4941
2023-05-10T01:48:30.588Z,951.4818
2023-05-10T01:49:34.053Z,951.4835
2023-05-10T01:50:37.256Z,951.4929
2023-05-10T01:51:41.470Z,951.4700
2023-05-10T01:52:41.005Z,951.4437
2023-05-10T01:53:44.231Z,951.4877
2023-05-10T01:54:47.481Z,951.5035
2023-05-10T01:55:50.697Z,951.5477
2023-05-10T01:56:54.140Z,951.5665
2023-05-10T01:57:57.359Z,951.5700
2023-05-10T01:59:00.548Z,951.5247
2023-05-10T02:00:03.772Z,951.5806
2023-05-10T02:01:07.093Z,951.6159
2023-05-10T02:02:10.308Z,951.5947
2023-05-10T02:03:13.564Z,951.5571
2023-05-10T02:04:16.752Z,951.5823
2023-05-10T02:05:30.849Z,951.5725
2023-05-10T02:06:34.039Z,951.5970
2023-05-10T02:07:37.518Z,951.6047
2023-05-10T02:08:40.744Z,951.6017
2023-05-10T02:09:44.314Z,951.5806
2023-05-10T02:10:47.726Z,951.5520
2023-05-10T02:11:50.932Z,951.5453
2023-05-10T02:12:54.201Z,951.5223
2023-05-10T02:13:57.404Z,951.5300
2023-05-10T02:15:00.640Z,951.5253
2023-05-10T02:16:03.840Z,951.5464
2023-05-10T02:17:07.055Z,951.5336
2023-05-10T02:18:10.368Z,951.5294
2023-05-10T02:19:13.566Z,951.5412
2023-05-10T02:20:17.222Z,951.5171
2023-05-10T02:21:20.597Z,951.4900
2023-05-10T02:22:23.825Z,951.5035
2023-05-10T02:23:27.053Z,951.5035
2023-05-10T02:24:30.248Z,951.5241
2023-05-10T02:25:33.703Z,951.5118
2023-05-10T02:26:36.887Z,951.5100
2023-05-10T02:27:40.392Z,951.5241
2023-05-10T02:28:43.610Z,951.5294
2023-05-10T02:29:46.812Z,951.5388
2023-05-10T02:30:50.009Z,951.5594
2023-05-10T02:31:53.228Z,951.5682
2023-05-10T02:32:56.457Z,951.5676
2023-05-10T02:33:59.644Z,951.5659
2023-05-10T02:35:00.803Z,951.5687
2023-05-10T02:36:04.024Z,951.5853
2023-05-10T02:37:07.241Z,951.5959
2023-05-10T02:38:10.796Z,951.6041
2023-05-10T02:39:13.990Z,951.5865
2023-05-10T02:40:17.462Z,951.5847
2023-05-10T02:41:20.783Z,951.5812
2023-05-10T02:42:24.005Z,951.5671
2023-05-10T02:43:27.233Z,951.5541
2023-05-10T02:44:30.446Z,951.5571
2023-05-10T02:45:33.666Z,951.5435
2023-05-10T02:46:36.894Z,951.5406
2023-05-10T02:47:40.123Z,951.5577
2023-05-10T02:48:43.392Z,951.5165
2023-05-10T02:49:46.595Z,951.5029
2023-05-10T02:50:50.146Z,951.4947
2023-05-10T02:51:53.341Z,951.4694
2023-05-10T02:52:56.823Z,951.4465
2023-05-10T02:54:00.046Z,951.4406
2023-05-10T02:55:03.521Z,951.4335
2023-05-10T02:56:06.714Z,951.4388
2023-05-10T02:57:09.948Z,951.4600
2023-05-10T02:58:13.211Z,951.4547
2023-05-10T02:59:16.466Z,951.4712
2023-05-10T03:00:19.915Z,951.4771
2023-05-10T03:01:23.177Z,951.4424
2023-05-10T03:02:26.403Z,951.4382
2023-05-10T03:03:29.942Z,951.4664
2023-05-10T03:04:33.196Z,951.4841
2023-05-10T03:05:36.382Z,951.4594
2023-05-10T03:06:39.662Z,951.4583
2023-05-10T03:07:42.877Z,951.4688
2023-05-10T03:08:46.058Z,951.4653
2023-05-10T03:09:49.268Z,951.4677
2023-05-10T03:10:52.718Z,951.4800
2023-05-10T03:11:55.923Z,951.5047
2023-05-10T03:12:59.411Z,951.5018
2023-05-10T03:14:02.611Z,951.5124
2023-05-10T03:15:05.851Z,951.5224
2023-05-10T03:16:09.112Z,951.5312
2023-05-10T03:17:12.315Z,951.5341
2023-05-10T03:18:15.507Z,951.5789
2023-05-10T03:19:18.711Z,951.5935
2023-05-10T03:20:20.035Z,951.5813
2023-05-10T03:21:23.255Z,951.6100
2023-05-10T03:22:26.490Z,951.6071
2023-05-10T03:23:29.695Z,951.6218
2023-05-10T03:24:32.922Z,951.6271
2023-05-10T03:25:36.204Z,951.6400
2023-05-10T03:26:39.440Z,951.6329
2023-05-10T03:27:42.650Z,951.6371
2023-05-10T03:28:45.873Z,951.6447
2023-05-10T03:29:49.102Z,951.6606
2023-05-10T03:30:52.451Z,951.6664
2023-05-10T03:31:55.819Z,951.6312
2023-05-10T03:32:59.302Z,951.6565
2023-05-10T03:34:02.582Z,951.6577
2023-05-10T03:35:05.792Z,951.6306
2023-05-10T03:36:09.244Z,951.6041
2023-05-10T03:37:12.485Z,951.6329
2023-05-10T03:38:16.021Z,951.6276
2023-05-10T03:39:19.232Z,951.6617
2023-05-10T03:40:22.673Z,951.6706
2023-05-10T03:41:25.873Z,951.6523
2023-05-10T03:42:29.061Z,951.7023
2023-05-10T03:43:32.498Z,951.7123
2023-05-10T03:44:35.732Z,951.6941
2023-05-10T03:45:39.038Z,951.7041
2023-05-10T03:46:42.501Z,951.7311
2023-05-10T03:47:45.749Z,951.7318
2023-05-10T03:48:48.967Z,951.7382
2023-05-10T03:49:52.199Z,951.7212
2023-05-10T03:50:55.595Z,951.7624
2023-05-10T03:51:58.767Z,951.7424
2023-05-10T03:53:02.223Z,951.7447
2023-05-10T03:54:05.427Z,951.7235
2023-05-10T03:55:08.659Z,951.7459
2023-05-10T03:56:11.897Z,951.7629
2023-05-10T03:57:15.090Z,951.7906
2023-05-10T03:58:18.569Z,951.7823
2023-05-10T03:59:21.785Z,951.7771
2023-05-10T04:00:25.024Z,951.7753
2023-05-10T04:01:28.221Z,951.7800
2023-05-10T04:02:31.545Z,951.7783
2023-05-10T04:03:34.885Z,951.7847
2023-05-10T04:04:38.066Z,951.7947
2023-05-10T04:05:41.302Z,951.7947
2023-05-10T04:06:44.512Z,951.8082
2023-05-10T04:07:47.730Z,951.8153
2023-05-10T04:08:50.959Z,951.8112
2023-05-10T04:09:54.150Z,951.8176
2023-05-10T04:10:57.375Z,951.8018
2023-05-10T04:12:00.602Z,951.8400
2023-05-10T04:13:03.827Z,951.8041
2023-05-10T04:14:07.090Z,951.8053
2023-05-10T04:15:10.296Z,951.8100
2023-05-10T04:16:13.489Z,951.7906
2023-05-10T04:17:16.895Z,951.7776
2023-05-10T04:18:20.381Z,951.7994
2023-05-10T04:19:23.605Z,951.7870
2023-05-10T04:20:26.823Z,951.7830
2023-05-10T04:21:30.268Z,951.7812
2023-05-10T04:22:33.418Z,951.7647
2023-05-10T04:23:36.862Z,951.7447
2023-05-10T04:24:40.082Z,951.7447
2023-05-10T04:25:43.286Z,951.7411
2023-05-10T04:26:46.487Z,951.7453
2023-05-10T04:27:49.735Z,951.7706
2023-05-10T04:28:52.944Z,951.7888
2023-05-10T04:29:56.177Z,951.8094
2023-05-10T04:30:59.437Z,951.8259
2023-05-10T04:32:02.605Z,951.8441
2023-05-10T04:33:05.850Z,951.8488
2023-05-10T04:34:09.324Z,951.8818
2023-05-10T04:35:12.548Z,951.9006
2023-05-10T04:36:15.787Z,951.8923
2023-05-10T04:37:19.033Z,951.9006
2023-05-10T04:38:22.524Z,951.8924
2023-05-10T04:39:25.753Z,951.8800
2023-05-10T04:40:28.992Z,951.9083
2023-05-10T04:41:32.454Z,951.9253
2023-05-10T04:42:35.659Z,951.9282
2023-05-10T04:43:38.882Z,951.9224
2023-05-10T04:44:42.048Z,951.9388
2023-05-10T04:45:45.273Z,951.9376
2023-05-10T04:46:48.798Z,951.9347
2023-05-10T04:47:51.995Z,951.9571
2023-05-10T04:48:55.202Z,951.9876
2023-05-10T04:49:58.422Z,951.9918
2023-05-10T04:51:01.686Z,952.0082
2023-05-10T04:52:04.901Z,952.0147
2023-05-10T04:53:08.156Z,952.0194
2023-05-10T04:54:11.365Z,952.0488
2023-05-10T04:55:14.608Z,952.0265
2023-05-10T04:56:17.836Z,952.0441
2023-05-10T04:57:21.046Z,952.0500
2023-05-10T04:58:24.252Z,952.0323
2023-05-10T04:59:27.716Z,952.0394
2023-05-10T05:00:30.894Z,952.0582
2023-05-10T05:01:34.178Z,952.0600
2023-05-10T05:02:37.483Z,952.0676
2023-05-10T05:03:40.842Z,952.0900
2023-05-10T05:04:44.058Z,952.0847
2023-05-10T05:05:47.285Z,952.0741
2023-05-10T05:06:53.662Z,952.0541
2023-05-10T05:07:53.374Z,952.0687
2023-05-10T05:08:56.639Z,952.0812
2023-05-10T05:09:59.874Z,952.1006
2023-05-10T05:11:03.066Z,952.0859
2023-05-10T05:12:06.294Z,952.1012
2023-05-10T05:13:09.500Z,952.1024
2023-05-10T05:14:12.670Z,952.1118
2023-05-10T05:15:15.907Z,952.1389
2023-05-10T05:16:19.170Z,952.1318
2023-05-10T05:17:22.377Z,952.1253
2023-05-10T05:18:25.599Z,952.1453
2023-05-10T05:19:29.071Z,952.1935
2023-05-10T05:20:32.292Z,952.2253
2023-05-10T05:21:35.490Z,952.2365
2023-05-10T05:22:38.701Z,952.2264
2023-05-10T05:23:41.936Z,952.2435
2023-05-10T05:24:45.137Z,952.2606
2023-05-10T05:25:48.364Z,952.2559
2023-05-10T05:26:51.616Z,952.2689
2023-05-10T05:27:54.837Z,952.2729
2023-05-10T05:28:58.077Z,952.2912
2023-05-10T05:30:01.298Z,952.3094
2023-05-10T05:31:04.473Z,952.3342
2023-05-10T05:32:07.756Z,952.3388
2023-05-10T05:33:11.029Z,952.3524
2023-05-10T05:34:14.211Z,952.3735
2023-05-10T05:35:17.572Z,952.3824
2023-05-10T05:36:20.925Z,952.3782
2023-05-10T05:37:24.154Z,952.3694
2023-05-10T05:38:27.361Z,952.3653
2023-05-10T05:39:30.802Z,952.3741
2023-05-10T05:40:34.003Z,952.3782
2023-05-10T05:41:37.198Z,952.3818
2023-05-10T05:42:40.445Z,952.3800
2023-05-10T05:43:43.690Z,952.3718
2023-05-10T05:44:47.062Z,952.3923
2023-05-10T05:45:50.403Z,952.3688
2023-05-10T05:46:53.614Z,952.3659
2023-05-10T05:47:56.858Z,952.3553
2023-05-10T05:49:00.034Z,952.3465
2023-05-10T05:50:03.316Z,952.3541
2023-05-10T05:51:07.406Z,952.3423
2023-05-10T05:52:07.271Z,952.3287
2023-05-10T05:53:10.492Z,952.3306
2023-05-10T05:54:13.671Z,952.3312
2023-05-10T05:55:17.213Z,952.3635
2023-05-10T05:56:20.492Z,952.3906
2023-05-10T05:57:23.713Z,952.4218
2023-05-10T05:58:26.948Z,952.4329
2023-05-10T05:59:30.202Z,952.4306
2023-05-10T06:00:33.397Z,952.4400
2023-05-10T06:01:36.614Z,952.4365
2023-05-10T06:02:40.010Z,952.4512
2023-05-10T06:03:43.405Z,952.4724
2023-05-10T06:04:46.616Z,952.4706
2023-05-10T06:05:49.872Z,952.4747
2023-05-10T06:06:53.093Z,952.4788
2023-05-10T06:07:56.328Z,952.4976
2023-05-10T06:08:59.576Z,952.4882
2023-05-10T06:10:02.820Z,952.4812
2023-05-10T06:11:05.994Z,952.4859
2023-05-10T06:12:09.547Z,952.5182
2023-05-10T06:13:12.803Z,952.5253
2023-05-10T06:14:16.296Z,952.5671
2023-05-10T06:15:19.504Z,952.5977
2023-05-10T06:16:22.776Z,952.5829
2023-05-10T06:17:26.007Z,952.6276
2023-05-10T06:18:29.235Z,952.6341
2023-05-10T06:19:32.586Z,952.6594
2023-05-10T06:20:35.800Z,952.5965
2023-05-10T06:21:39.036Z,952.5923
2023-05-10T06:22:42.240Z,952.6729
2023-05-10T06:23:45.467Z,952.6894
2023-05-10T06:24:48.709Z,952.6547
2023-05-10T06:25:51.952Z,952.7100
2023-05-10T06:26:55.189Z,952.6947
2023-05-10T06:27:58.547Z,952.7159
2023-05-10T06:29:01.778Z,952.7076
2023-05-10T06:30:12.339Z,952.7070
2023-05-10T06:31:06.812Z,952.7274
2023-05-10T06:32:10.045Z,952.7341
2023-05-10T06:33:13.358Z,952.6653
2023-05-10T06:34:16.603Z,952.6653
2023-05-10T06:35:20.209Z,952.6759
2023-05-10T06:36:23.803Z,952.7482
2023-05-10T06:37:27.075Z,952.6724
2023-05-10T06:38:30.340Z,952.7053
2023-05-10T06:39:33.805Z,952.7542
2023-05-10T06:40:37.053Z,952.8129
2023-05-10T06:41:40.340Z,952.8071
2023-05-10T06:42:43.588Z,952.8047
2023-05-10T06:43:46.815Z,952.8494
2023-05-10T06:44:50.099Z,952.8741
2023-05-10T06:45:53.412Z,952.9106
2023-05-10T06:46:56.672Z,952.7935
2023-05-10T06:47:59.949Z,952.7977
2023-05-10T06:49:03.202Z,952.8041
2023-05-10T06:50:06.458Z,952.7665
2023-05-10T06:51:09.704Z,952.8535
2023-05-10T06:52:13.183Z,952.7830
2023-05-10T06:53:16.709Z,952.7982
2023-05-10T06:54:19.933Z,952.8517
2023-05-10T06:55:23.152Z,952.8459
2023-05-10T06:56:26.380Z,952.7853
2023-05-10T06:57:31.744Z,952.7817
2023-05-10T06:58:31.784Z,952.8325
2023-05-10T06:59:35.167Z,952.8718
2023-05-10T07:00:38.540Z,952.9194
2023-05-10T07:01:41.807Z,952.9088
2023-05-10T07:02:45.037Z,952.8788
2023-05-10T07:03:48.296Z,952.8470
2023-05-10T07:04:51.606Z,952.8312
2023-05-10T07:05:54.808Z,952.8794
2023-05-10T07:06:58.291Z,952.7641
2023-05-10T07:08:01.527Z,952.8318
2023-05-10T07:09:04.802Z,952.8171
2023-05-10T07:10:08.261Z,952.8135
2023-05-10T07:11:11.506Z,952.7924
2023-05-10T07:12:15.868Z,952.8294
2023-05-10T07:13:15.752Z,952.7988
2023-05-10T07:14:19.317Z,952.8176
2023-05-10T07:15:22.572Z,952.8376
2023-05-10T07:16:25.826Z,952.8241
2023-05-10T07:17:29.144Z,952.8383
2023-05-10T07:18:32.493Z,952.8447
2023-05-10T07:19:35.710Z,952.8682
2023-05-10T07:20:38.942Z,952.8512
2023-05-10T07:21:42.186Z,952.8294
2023-05-10T07:22:45.687Z,952.8447
2023-05-10T07:23:48.918Z,952.9200
2023-05-10T07:24:52.176Z,952.8653
2023-05-10T07:25:55.406Z,952.8912
2023-05-10T07:26:58.921Z,952.9012
2023-05-10T07:28:02.147Z,952.9188
2023-05-10T07:29:05.406Z,952.9124
2023-05-10T07:30:08.881Z,952.8900
2023-05-10T07:31:12.151Z,952.9053
2023-05-10T07:32:15.455Z,952.9829
2023-05-10T07:33:18.852Z,952.9400
2023-05-10T07:34:22.114Z,953.0377
2023-05-10T07:35:25.646Z,952.9965
2023-05-10T07:36:28.904Z,953.0012
2023-05-10T07:37:32.162Z,952.9777
2023-05-10T07:38:35.413Z,952.9447
2023-05-10T07:39:38.733Z,953.0071
2023-05-10T07:40:41.968Z,952.9423
2023-05-10T07:41:45.291Z,952.9588
2023-05-10T07:42:48.488Z,952.9735
2023-05-10T07:43:51.747Z,952.9600
2023-05-10T07:44:54.995Z,953.0094
2023-05-10T07:45:58.238Z,952.9812
2023-05-10T07:47:01.478Z,952.9906
2023-05-10T07:48:04.748Z,952.9700
2023-05-10T07:49:08.016Z,952.9670
2023-05-10T07:50:11.260Z,952.9958
2023-05-10T07:51:14.557Z,953.0400
2023-05-10T07:52:17.833Z,952.9976
2023-05-10T07:53:21.139Z,952.9447
2023-05-10T07:54:24.398Z,953.0118
2023-05-10T07:55:27.643Z,953.0076
2023-05-10T07:56:30.866Z,953.0577
2023-05-10T07:57:34.376Z,953.0588
2023-05-10T07:58:37.644Z,953.0529
2023-05-10T07:59:40.882Z,953.0765
2023-05-10T08:00:44.122Z,953.0759
2023-05-10T08:01:47.380Z,953.0771
2023-05-10T08:02:50.967Z,953.0359
2023-05-10T08:03:54.372Z,953.0659
2023-05-10T08:04:57.784Z,953.0741
2023-05-10T08:06:01.028Z,953.1212
2023-05-10T08:07:04.309Z,953.0018
2023-05-10T08:08:07.543Z,953.0624
2023-05-10T08:09:10.791Z,953.1553
2023-05-10T08:10:14.299Z,953.0970
2023-05-10T08:11:17.532Z,953.0906
2023-05-10T08:12:21.066Z,953.1271
2023-05-10T08:13:24.289Z,953.0618
2023-05-10T08:14:27.557Z,953.0941
2023-05-10T08:15:30.819Z,953.0759
2023-05-10T08:16:34.141Z,953.0965
2023-05-10T08:17:37.399Z,953.0447
2023-05-10T08:18:40.726Z,953.0923
2023-05-10T08:19:43.938Z,953.1135
2023-05-10T08:20:47.162Z,953.1000
2023-05-10T08:21:50.471Z,953.1647
2023-05-10T08:22:53.720Z,953.1235
2023-05-10T08:23:56.972Z,953.0853
2023-05-10T08:25:00.195Z,953.1235
2023-05-10T08:26:03.458Z,953.1235
2023-05-10T08:27:06.735Z,953.1859
2023-05-10T08:28:11.335Z,953.1647
2023-05-10T08:29:11.472Z,953.0519
2023-05-10T08:30:14.731Z,953.0547
2023-05-10T08:31:18.008Z,953.0818
2023-05-10T08:32:21.222Z,953.0671
2023-05-10T08:33:24.471Z,953.1135
2023-05-10T08:34:27.878Z,953.1583
2023-05-10T08:35:31.126Z,953.1124
2023-05-10T08:36:34.395Z,953.0147
2023-05-10T08:37:37.635Z,953.1294
2023-05-10T08:38:40.845Z,953.0894
2023-05-10T08:39:44.372Z,953.0288
2023-05-10T08:40:47.591Z,953.0447
2023-05-10T08:41:50.829Z,953.1012
2023-05-10T08:42:54.115Z,953.0641
2023-05-10T08:43:57.394Z,953.1512
2023-05-10T08:45:00.955Z,953.1436
2023-05-10T08:46:04.284Z,953.1800
2023-05-10T08:47:07.730Z,953.2100
2023-05-10T08:48:11.157Z,953.2224
2023-05-10T08:49:14.371Z,953.2271
2023-05-10T08:50:17.639Z,953.2335
2023-05-10T08:51:20.887Z,953.2230
2023-05-10T08:52:24.154Z,953.2259
2023-05-10T08:53:27.391Z,953.2565
2023-05-10T08:54:30.657Z,953.2253
2023-05-10T08:55:34.139Z,953.1682
2023-05-10T08:56:37.366Z,953.1653
2023-05-10T08:57:40.623Z,953.1829
2023-05-10T08:58:43.899Z,953.2806
2023-05-10T08:59:47.103Z,953.2865
2023-05-10T09:00:50.358Z,953.2435
2023-05-10T09:01:53.569Z,953.2411
2023-05-10T09:02:56.846Z,953.2841
2023-05-10T09:04:00.200Z,953.2306
2023-05-10T09:05:03.771Z,953.1171
2023-05-10T09:06:07.065Z,953.2694
2023-05-10T09:07:10.293Z,953.2476
2023-05-10T09:08:13.568Z,953.3588
2023-05-10T09:09:16.851Z,953.2971
2023-05-10T09:10:20.095Z,953.2935
2023-05-10T09:11:23.348Z,953.2935
2023-05-10T09:12:26.568Z,953.2924
2023-05-10T09:13:29.832Z,953.2865
2023-05-10T09:14:33.073Z,953.3383
2023-05-10T09:15:36.570Z,953.2429
2023-05-10T09:16:39.973Z,953.2735
2023-05-10T09:17:43.343Z,953.2865
2023-05-10T09:18:46.655Z,953.2977
2023-05-10T09:19:49.900Z,953.3012
2023-05-10T09:20:53.180Z,953.3400
2023-05-10T09:21:56.393Z,953.3659
2023-05-10T09:22:59.874Z,953.3618
2023-05-10T09:24:03.148Z,953.3853
2023-05-10T09:25:06.391Z,953.4512
2023-05-10T09:26:09.667Z,953.4100
2023-05-10T09:27:12.922Z,953.3859
2023-05-10T09:28:16.492Z,953.3983
2023-05-10T09:29:19.745Z,953.3923
2023-05-10T09:30:23.019Z,953.3535
2023-05-10T09:31:26.332Z,953.3423
2023-05-10T09:32:29.562Z,953.3453
2023-05-10T09:33:32.801Z,953.3371
2023-05-10T09:34:36.048Z,953.3782
2023-05-10T09:35:39.528Z,953.3741
2023-05-10T09:36:42.796Z,953.3771
2023-05-10T09:37:46.632Z,953.3388
2023-05-10T09:38:46.202Z,953.3450
2023-05-10T09:39:49.455Z,953.3847
2023-05-10T09:40:52.728Z,953.3659
2023-05-10T09:41:55.960Z,953.3947
2023-05-10T09:42:59.429Z,953.3765
2023-05-10T09:44:02.682Z,953.3517
2023-05-10T09:45:05.952Z,953.3765
2023-05-10T09:46:09.359Z,953.4218
2023-05-10T09:47:12.612Z,953.4318
2023-05-10T09:48:15.849Z,953.4129
2023-05-10T09:49:19.105Z,953.3694
2023-05-10T09:50:22.387Z,953.3000
2023-05-10T09:51:25.610Z,953.3388
2023-05-10T09:52:28.885Z,953.3229
2023-05-10T09:53:32.275Z,953.3459
2023-05-10T09:54:35.491Z,953.3524
2023-05-10T09:55:38.742Z,953.3576
2023-05-10T09:56:42.015Z,953.3229
2023-05-10T09:57:45.245Z,953.3576
2023-05-10T09:58:48.509Z,953.3688
2023-05-10T09:59:51.732Z,953.3306
2023-05-10T10:00:55.035Z,953.3282
2023-05-10T10:01:58.360Z,953.3394
2023-05-10T10:03:01.585Z,953.3441
2023-05-10T10:04:04.836Z,953.3676
2023-05-10T10:05:08.240Z,953.3676
2023-05-10T10:06:22.700Z,953.3865
2023-05-10T10:07:13.302Z,953.3960
2023-05-10T10:08:16.814Z,953.3747
2023-05-10T10:09:20.058Z,953.3559
2023-05-10T10:10:23.301Z,953.3329
2023-05-10T10:11:26.564Z,953.3653
2023-05-10T10:12:29.805Z,953.3847
2023-05-10T10:13:33.286Z,953.3900
2023-05-10T10:14:36.551Z,953.3941
2023-05-10T10:15:39.778Z,953.3994
2023-05-10T10:16:55.514Z,953.4082
2023-05-10T10:17:44.878Z,953.3940
2023-05-10T10:18:48.167Z,953.3700
2023-05-10T10:19:51.442Z,953.3718
2023-05-10T10:20:52.793Z,953.3700
2023-05-10T10:21:56.063Z,953.3794
2023-05-10T10:22:59.273Z,953.3671
2023-05-10T10:24:02.571Z,953.3724
2023-05-10T10:25:05.839Z,953.3323
2023-05-10T10:26:09.384Z,953.3218
2023-05-10T10:27:12.601Z,953.2882
2023-05-10T10:28:15.869Z,953.2806
2023-05-10T10:29:19.121Z,953.2977
2023-05-10T10:30:22.714Z,953.2976
2023-05-10T10:31:25.988Z,953.2917
2023-05-10T10:32:29.277Z,953.2629
2023-05-10T10:33:32.629Z,953.2964
2023-05-10T10:34:35.888Z,953.3041
2023-05-10T10:35:39.142Z,953.2912
2023-05-10T10:36:42.410Z,953.2788
2023-05-10T10:37:45.642Z,953.3071
2023-05-10T10:38:48.876Z,953.3118
2023-05-10T10:39:52.125Z,953.3071
2023-05-10T10:40:55.383Z,953.3282
2023-05-10T10:41:58.620Z,953.2924
2023-05-10T10:43:02.113Z,953.2771
2023-05-10T10:44:05.348Z,953.3011
2023-05-10T10:45:08.600Z,953.3112
2023-05-10T10:46:11.899Z,953.3247
2023-05-10T10:47:15.168Z,953.3088
2023-05-10T10:48:18.454Z,953.3306
2023-05-10T10:49:21.700Z,953.3606
2023-05-10T10:50:24.952Z,953.3906
2023-05-10T10:51:28.206Z,953.3129
2023-05-10T10:52:31.477Z,953.3194
2023-05-10T10:53:35.067Z,953.3524
2023-05-10T10:54:38.328Z,953.3682
2023-05-10T10:55:41.573Z,953.3559
2023-05-10T10:56:44.836Z,953.3312
2023-05-10T10:57:48.108Z,953.3194
2023-05-10T10:58:51.573Z,953.2888
2023-05-10T10:59:54.803Z,953.2576
2023-05-10T11:00:58.067Z,953.2112
2023-05-10T11:02:01.272Z,953.1829
2023-05-10T11:03:04.539Z,953.2217
2023-05-10T11:04:08.535Z,953.1800
2023-05-10T11:05:08.093Z,953.2306
2023-05-10T11:06:11.344Z,953.1912
2023-05-10T11:07:14.598Z,953.2041
2023-05-10T11:08:15.654Z,953.2331
2023-05-10T11:09:18.919Z,953.1900
2023-05-10T11:10:22.153Z,953.2041
2023-05-10T11:11:25.394Z,953.2006
2023-05-10T11:12:28.673Z,953.2206
2023-05-10T11:13:31.970Z,953.1677
2023-05-10T11:14:35.242Z,953.1847
2023-05-10T11:15:38.491Z,953.1647
2023-05-10T11:16:41.764Z,953.1982
2023-05-10T11:17:45.017Z,953.1947
2023-05-10T11:18:50.271Z,953.1853
2023-05-10T11:19:49.849Z,953.1844
2023-05-10T11:20:53.335Z,953.1806
2023-05-10T11:21:56.602Z,953.2123
2023-05-10T11:22:59.874Z,953.2153
2023-05-10T11:24:03.119Z,953.1718
2023-05-10T11:25:06.366Z,953.1924
2023-05-10T11:26:09.610Z,953.1853
2023-05-10T11:27:12.876Z,953.2059
2023-05-10T11:28:16.158Z,953.2006
2023-05-10T11:29:19.380Z,953.2259
2023-05-10T11:30:22.648Z,953.1994
2023-05-10T11:31:25.976Z,953.2006
2023-05-10T11:32:29.226Z,953.2029
2023-05-10T11:33:32.530Z,953.2147
2023-05-10T11:34:35.823Z,953.1871
2023-05-10T11:35:40.997Z,953.1871
2023-05-10T11:36:41.957Z,953.1825
2023-05-10T11:37:45.181Z,953.1900
2023-05-10T11:38:48.441Z,953.1617
2023-05-10T11:39:51.709Z,953.1800
2023-05-10T11:40:54.970Z,953.1812
2023-05-10T11:41:58.262Z,953.1629
2023-05-10T11:43:01.513Z,953.1594
2023-05-10T11:44:04.735Z,953.1465
2023-05-10T11:45:08.006Z,953.1053
2023-05-10T11:46:11.534Z,953.1459
2023-05-10T11:47:14.789Z,953.0671
2023-05-10T11:48:18.049Z,953.0765
2023-05-10T11:49:21.284Z,953.0871
2023-05-10T11:50:24.530Z,953.0494
2023-05-10T11:51:28.031Z,953.0794
2023-05-10T11:52:31.235Z,953.0618
2023-05-10T11:53:34.493Z,953.0494
2023-05-10T11:54:37.754Z,953.0341
2023-05-10T11:55:41.049Z,952.9735
2023-05-10T11:56:44.302Z,953.0024
2023-05-10T11:57:47.525Z,952.9888
2023-05-10T11:58:50.803Z,953.0223
2023-05-10T11:59:54.065Z,952.9924
2023-05-10T12:00:57.337Z,952.9894
2023-05-10T12:02:00.622Z,953.0641
2023-05-10T12:03:04.063Z,953.0565
2023-05-10T12:04:07.532Z,953.1041
2023-05-10T12:05:11.010Z,953.1077
2023-05-10T12:06:14.292Z,953.0994
2023-05-10T12:07:17.541Z,953.1165
2023-05-10T12:08:20.823Z,953.1094
2023-05-10T12:10:24.041Z,953.1160
2023-05-10T12:11:25.328Z,953.1056
2023-05-10T12:12:28.598Z,953.1265
2023-05-10T12:13:31.870Z,953.1453
2023-05-10T12:14:35.124Z,953.2694
2023-05-10T12:15:38.395Z,953.2206
2023-05-10T12:16:42.067Z,953.2476
2023-05-10T12:17:45.376Z,953.2259
2023-05-10T12:18:48.682Z,953.1988
2023-05-10T12:19:51.918Z,953.1617
2023-05-10T12:20:55.160Z,953.1894
2023-05-10T12:21:58.403Z,953.1812
2023-05-10T12:23:01.640Z,953.1818
2023-05-10T12:24:05.127Z,953.1647